createdAt,value
2019-02-15T00:01:25.906Z,99531.49
2019-02-15T00:03:57.322Z,99539.30
2019-02-15T00:06:28.512Z,99535.05
2019-02-15T00:09:00.323Z,99535.05
2019-02-15T00:11:32.073Z,99536.95
2019-02-15T00:14:03.541Z,99536.27
2019-02-15T00:16:34.817Z,99540.42
2019-02-15T00:19:31.425Z,99554.55
2019-02-15T00:22:03.268Z,99554.55
2019-02-15T00:24:34.428Z,99563.66
2019-02-15T00:27:06.632Z,99560.30
2019-02-15T00:29:37.803Z,99567.80
2019-02-15T00:32:09.101Z,99563.41
2019-02-15T00:34:40.234Z,99576.08
2019-02-15T00:37:11.845Z,99576.08
2019-02-15T00:39:42.928Z,99570.84
2019-02-15T00:42:14.337Z,99573.59
2019-02-15T00:44:45.681Z,99577.46
2019-02-15T00:47:34.470Z,99583.75
2019-02-15T00:50:27.424Z,99583.75
2019-02-15T00:53:23.951Z,99574.91
2019-02-15T00:56:12.711Z,99574.91
2019-02-15T00:59:16.114Z,99572.16
2019-02-15T01:02:06.312Z,99573.78
2019-02-15T01:05:12.464Z,99571.48
2019-02-15T01:08:01.022Z,99566.42
2019-02-15T01:10:54.173Z,99572.94
2019-02-15T01:13:31.122Z,99572.94
2019-02-15T01:15:59.627Z,99572.70
2019-02-15T01:18:31.149Z,99572.70
2019-02-15T01:21:02.474Z,99577.55
2019-02-15T01:23:33.651Z,99585.79
2019-02-15T01:26:27.035Z,99585.69
2019-02-15T01:29:19.787Z,99585.38
2019-02-15T01:32:08.447Z,99592.08
2019-02-15T01:35:04.986Z,99592.08
2019-02-15T01:38:01.313Z,99593.48
2019-02-15T01:40:54.052Z,99601.57
2019-02-15T01:43:40.045Z,99600.27
2019-02-15T01:46:19.988Z,99601.66
2019-02-15T01:48:51.588Z,99601.66
2019-02-15T01:51:22.749Z,99608.39
2019-02-15T01:53:54.222Z,99612.04
2019-02-15T01:56:25.412Z,99611.39
2019-02-15T01:58:56.933Z,99618.12
2019-02-15T02:01:29.226Z,99622.47
2019-02-15T02:04:01.800Z,99622.72
2019-02-15T02:06:34.049Z,99628.39
2019-02-15T02:09:05.573Z,99626.92
2019-02-15T02:11:37.413Z,99631.34
2019-02-15T02:14:08.566Z,99637.92
2019-02-15T02:16:39.919Z,99641.13
2019-02-15T02:19:11.037Z,99641.13
2019-02-15T02:21:42.274Z,99649.29
2019-02-15T02:24:13.621Z,99663.75
2019-02-15T02:26:44.923Z,99663.75
2019-02-15T02:29:16.275Z,99666.36
2019-02-15T02:31:47.842Z,99666.36
2019-02-15T02:34:19.145Z,99680.73
2019-02-15T02:36:55.147Z,99680.73
2019-02-15T02:39:27.135Z,99692.03
2019-02-15T02:41:58.491Z,99687.22
2019-02-15T02:44:29.746Z,99689.30
2019-02-15T02:47:01.255Z,99689.30
2019-02-15T02:49:33.932Z,99697.89
2019-02-15T02:52:05.515Z,99700.64
2019-02-15T02:54:36.955Z,99700.16
2019-02-15T02:57:08.296Z,99700.16
2019-02-15T02:59:39.915Z,99709.97
2019-02-15T03:02:11.294Z,99709.97
2019-02-15T03:04:42.457Z,99712.63
2019-02-15T03:07:14.062Z,99717.43
2019-02-15T03:09:45.317Z,99717.43
2019-02-15T03:12:16.638Z,99724.72
2019-02-15T03:14:48.112Z,99728.40
2019-02-15T03:17:19.672Z,99728.40
2019-02-15T03:19:51.502Z,99724.41
2019-02-15T03:22:22.973Z,99724.46
2019-02-15T03:24:54.532Z,99728.48
2019-02-15T03:27:25.964Z,99727.49
2019-02-15T03:29:57.587Z,99732.00
2019-02-15T03:32:29.098Z,99737.79
2019-02-15T03:35:00.805Z,99737.79
2019-02-15T03:37:54.437Z,99729.36
2019-02-15T03:40:29.762Z,99729.36
2019-02-15T03:43:01.435Z,99736.69
2019-02-15T03:45:33.033Z,99737.34
2019-02-15T03:48:04.709Z,99742.48
2019-02-15T03:50:36.430Z,99744.16
2019-02-15T03:53:08.060Z,99752.84
2019-02-15T03:55:39.668Z,99752.58
2019-02-15T03:58:11.112Z,99761.74
2019-02-15T04:00:42.859Z,99766.67
2019-02-15T04:03:14.448Z,99766.67
2019-02-15T04:05:45.935Z,99772.94
2019-02-15T04:08:17.579Z,99775.31
2019-02-15T04:10:49.153Z,99781.80
2019-02-15T04:13:20.704Z,99779.82
2019-02-15T04:15:52.258Z,99786.95
2019-02-15T04:18:23.991Z,99786.95
2019-02-15T04:20:56.855Z,99789.69
2019-02-15T04:23:28.388Z,99786.41
2019-02-15T04:26:00.070Z,99784.90
2019-02-15T04:28:32.001Z,99784.90
2019-02-15T04:31:03.438Z,99782.06
2019-02-15T04:33:35.602Z,99780.46
2019-02-15T04:36:07.263Z,99781.98
2019-02-15T04:38:38.893Z,99781.98
2019-02-15T04:41:10.465Z,99787.73
2019-02-15T04:43:42.283Z,99783.41
2019-02-15T04:46:13.530Z,99772.30
2019-02-15T04:48:45.235Z,99772.30
2019-02-15T04:51:17.141Z,99751.45
2019-02-15T04:53:48.456Z,99760.42
2019-02-15T04:56:20.219Z,99760.42
2019-02-15T04:58:51.612Z,99757.59
2019-02-15T05:01:23.192Z,99751.81
2019-02-15T05:03:54.901Z,99754.91
2019-02-15T05:06:26.633Z,99755.24
2019-02-15T05:08:58.162Z,99755.24
2019-02-15T05:11:29.846Z,99761.06
2019-02-15T05:14:01.886Z,99755.40
2019-02-15T05:16:33.390Z,99741.08
2019-02-15T05:19:05.130Z,99739.41
2019-02-15T05:21:36.741Z,99738.91
2019-02-15T05:24:08.324Z,99738.91
2019-02-15T05:26:39.829Z,99730.96
2019-02-15T05:29:11.473Z,99731.80
2019-02-15T05:31:43.026Z,99723.25
2019-02-15T05:34:14.451Z,99724.48
2019-02-15T05:36:46.028Z,99728.20
2019-02-15T05:39:17.845Z,99730.89
2019-02-15T05:41:49.295Z,99730.89
2019-02-15T05:44:21.356Z,99730.61
2019-02-15T05:46:52.833Z,99722.96
2019-02-15T05:49:24.424Z,99722.96
2019-02-15T05:51:56.136Z,99707.22
2019-02-15T05:54:27.908Z,99708.16
2019-02-15T05:56:59.452Z,99708.16
2019-02-15T05:59:30.898Z,99702.31
2019-02-15T06:02:02.622Z,99702.31
2019-02-15T06:04:34.128Z,99697.47
2019-02-15T06:07:05.727Z,99693.77
2019-02-15T06:09:37.101Z,99693.77
2019-02-15T06:12:08.763Z,99701.53
2019-02-15T06:14:40.684Z,99701.53
2019-02-15T06:17:12.457Z,99692.23
2019-02-15T06:19:43.966Z,99685.87
2019-02-15T06:22:15.729Z,99685.87
2019-02-15T06:24:47.310Z,99677.30
2019-02-15T06:27:18.840Z,99680.18
2019-02-15T06:29:50.488Z,99674.07
2019-02-15T06:32:22.046Z,99658.97
2019-02-15T06:34:53.982Z,99658.05
2019-02-15T06:37:25.440Z,99658.05
2019-02-15T06:39:56.936Z,99654.39
2019-02-15T06:42:28.781Z,99654.39
2019-02-15T06:45:00.601Z,99655.59
2019-02-15T06:47:32.531Z,99655.59
2019-02-15T06:50:04.286Z,99647.80
2019-02-15T06:52:36.241Z,99650.69
2019-02-15T06:55:08.228Z,99640.39
2019-02-15T06:57:39.820Z,99640.39
2019-02-15T07:00:34.151Z,99636.38
2019-02-15T07:03:25.470Z,99637.53
2019-02-15T07:05:57.270Z,99637.53
2019-02-15T07:08:28.782Z,99627.80
2019-02-15T07:11:00.738Z,99613.78
2019-02-15T07:13:32.495Z,99608.98
2019-02-15T07:16:04.027Z,99608.98
2019-02-15T07:18:35.962Z,99604.63
2019-02-15T07:21:08.482Z,99604.63
2019-02-15T07:23:40.255Z,99587.60
2019-02-15T07:26:11.701Z,99587.60
2019-02-15T07:28:43.188Z,99584.54
2019-02-15T07:31:15.011Z,99575.93
2019-02-15T07:33:46.584Z,99570.66
2019-02-15T07:36:18.177Z,99570.14
2019-02-15T07:38:49.764Z,99570.14
2019-02-15T07:41:21.361Z,99571.89
2019-02-15T07:43:53.106Z,99555.25
2019-02-15T07:46:24.707Z,99552.67
2019-02-15T07:48:56.256Z,99552.67
2019-02-15T07:51:27.732Z,99547.87
2019-02-15T07:53:59.654Z,99547.62
2019-02-15T07:56:31.140Z,99537.20
2019-02-15T07:59:02.985Z,99539.30
2019-02-15T08:01:34.666Z,99531.31
2019-02-15T08:04:06.912Z,99525.98
2019-02-15T08:06:38.331Z,99528.14
2019-02-15T08:09:12.529Z,99521.41
2019-02-15T08:11:44.323Z,99513.33
2019-02-15T08:14:17.592Z,99508.56
2019-02-15T08:16:49.153Z,99508.56
2019-02-15T08:19:21.293Z,99506.88
2019-02-15T08:21:52.908Z,99507.64
2019-02-15T08:24:25.033Z,99501.28
2019-02-15T08:26:56.566Z,99501.28
2019-02-15T08:29:28.484Z,99494.34
2019-02-15T08:32:01.869Z,99494.34
2019-02-15T08:34:33.615Z,99479.91
2019-02-15T08:37:05.265Z,99479.91
2019-02-15T08:39:37.166Z,99481.23
2019-02-15T08:42:09.033Z,99472.16
2019-02-15T08:44:40.664Z,99465.56
2019-02-15T08:47:13.421Z,99468.48
2019-02-15T08:49:45.645Z,99458.70
2019-02-15T08:52:17.282Z,99458.47
2019-02-15T08:54:48.800Z,99458.47
2019-02-15T08:57:20.515Z,99458.36
2019-02-15T08:59:52.266Z,99460.77
2019-02-15T09:02:25.157Z,99451.50
2019-02-15T09:04:56.985Z,99456.48
2019-02-15T09:07:28.890Z,99450.30
2019-02-15T09:10:00.394Z,99450.30
2019-02-15T09:12:32.112Z,99445.52
2019-02-15T09:15:04.136Z,99445.52
2019-02-15T09:17:35.907Z,99437.36
2019-02-15T09:20:08.462Z,99436.69
2019-02-15T09:22:40.035Z,99428.34
2019-02-15T09:25:12.399Z,99429.83
2019-02-15T09:27:54.354Z,99429.84
2019-02-15T09:30:26.462Z,99425.53
2019-02-15T09:32:58.377Z,99423.09
2019-02-15T09:35:29.939Z,99426.00
2019-02-15T09:38:01.933Z,99418.30
2019-02-15T09:40:33.650Z,99421.22
2019-02-15T09:43:05.652Z,99417.30
2019-02-15T09:45:37.428Z,99419.94
2019-02-15T09:48:09.403Z,99421.22
2019-02-15T09:50:41.222Z,99421.22
2019-02-15T09:53:13.479Z,99419.06
2019-02-15T09:55:45.660Z,99415.39
2019-02-15T09:58:17.732Z,99413.06
2019-02-15T10:00:51.272Z,99413.06
2019-02-15T10:03:24.846Z,99418.02
2019-02-15T10:05:59.306Z,99417.29
2019-02-15T10:08:33.537Z,99417.29
2019-02-15T10:11:07.802Z,99412.22
2019-02-15T10:13:40.625Z,99410.52
2019-02-15T10:16:14.148Z,99410.34
2019-02-15T10:18:48.024Z,99409.67
2019-02-15T10:21:22.362Z,99407.72
2019-02-15T10:23:56.102Z,99409.20
2019-02-15T10:26:29.936Z,99409.20
2019-02-15T10:29:04.475Z,99405.65
2019-02-15T10:31:36.845Z,99405.65
2019-02-15T10:34:08.832Z,99412.59
2019-02-15T10:36:40.556Z,99411.53
2019-02-15T10:39:12.527Z,99410.14
2019-02-15T10:41:44.771Z,99402.65
2019-02-15T10:44:17.343Z,99402.65
2019-02-15T10:46:49.046Z,99410.34
2019-02-15T10:49:20.826Z,99410.14
2019-02-15T10:51:52.760Z,99408.57
2019-02-15T10:54:24.341Z,99405.73
2019-02-15T10:56:56.196Z,99410.14
2019-02-15T10:59:27.785Z,99410.14
2019-02-15T11:02:04.236Z,99411.45
2019-02-15T11:04:36.544Z,99414.92
2019-02-15T11:07:10.423Z,99419.53
2019-02-15T11:09:43.026Z,99421.78
2019-02-15T11:12:15.472Z,99421.78
2019-02-15T11:14:47.571Z,99414.92
2019-02-15T11:17:19.999Z,99414.92
2019-02-15T11:19:51.791Z,99412.59
2019-02-15T11:22:25.091Z,99417.28
2019-02-15T11:24:57.436Z,99408.64
2019-02-15T11:27:29.408Z,99408.64
2019-02-15T11:30:01.109Z,99418.01
2019-02-15T11:32:33.129Z,99418.01
2019-02-15T11:35:05.501Z,99422.91
2019-02-15T11:37:37.269Z,99418.68
2019-02-15T11:40:11.400Z,99425.16
2019-02-15T11:42:43.503Z,99417.84
2019-02-15T11:45:15.480Z,99421.22
2019-02-15T11:48:14.098Z,99421.22
2019-02-15T11:50:46.143Z,99419.70
2019-02-15T11:53:18.224Z,99419.70
2019-02-15T11:55:49.827Z,99424.20
2019-02-15T11:58:21.897Z,99424.20
2019-02-15T12:00:53.884Z,99435.45
2019-02-15T12:03:25.752Z,99435.45
2019-02-15T12:05:58.043Z,99441.72
2019-02-15T12:08:30.061Z,99438.74
2019-02-15T12:11:01.613Z,99445.94
2019-02-15T12:13:34.740Z,99447.92
2019-02-15T12:16:06.280Z,99447.92
2019-02-15T12:18:38.119Z,99448.09
2019-02-15T12:21:09.657Z,99449.09
2019-02-15T12:23:41.212Z,99449.09
2019-02-15T12:26:13.206Z,99449.67
2019-02-15T12:28:44.878Z,99449.67
2019-02-15T12:31:17.026Z,99449.67
2019-02-15T12:33:48.861Z,99455.53
2019-02-15T12:36:20.665Z,99457.69
2019-02-15T12:38:52.409Z,99468.30
2019-02-15T12:41:24.172Z,99459.39
2019-02-15T12:43:55.642Z,99459.27
2019-02-15T12:46:27.538Z,99455.13
2019-02-15T12:48:59.153Z,99452.46
2019-02-15T12:51:30.653Z,99447.66
2019-02-15T12:54:03.122Z,99451.66
2019-02-15T12:56:35.396Z,99457.52
2019-02-15T12:59:07.090Z,99457.52
2019-02-15T13:01:38.502Z,99458.53
2019-02-15T13:04:10.233Z,99458.53
2019-02-15T13:06:43.075Z,99471.43
2019-02-15T13:09:14.767Z,99479.05
2019-02-15T13:11:46.570Z,99495.58
2019-02-15T13:14:18.290Z,99499.95
2019-02-15T13:16:50.018Z,99508.81
2019-02-15T13:19:21.773Z,99508.81
2019-02-15T13:21:53.536Z,99515.80
2019-02-15T13:24:25.189Z,99515.80
2019-02-15T13:26:57.321Z,99534.67
2019-02-15T13:29:28.939Z,99532.98
2019-02-15T13:32:00.622Z,99536.56
2019-02-15T13:34:32.302Z,99536.56
2019-02-15T13:37:03.835Z,99551.36
2019-02-15T13:39:35.174Z,99551.36
2019-02-15T13:42:07.915Z,99551.34
2019-02-15T13:44:39.402Z,99552.27
2019-02-15T13:47:11.168Z,99556.83
2019-02-15T13:49:42.764Z,99561.91
2019-02-15T13:52:14.406Z,99561.91
2019-02-15T13:54:45.775Z,99562.83
2019-02-15T13:57:17.362Z,99565.50
2019-02-15T13:59:48.847Z,99578.70
2019-02-15T14:02:20.338Z,99587.86
2019-02-15T14:04:52.139Z,99587.86
2019-02-15T14:07:24.721Z,99589.08
2019-02-15T14:09:56.228Z,99595.92
2019-02-15T14:12:28.021Z,99595.92
2019-02-15T14:14:59.500Z,99596.11
2019-02-15T14:17:31.049Z,99596.11
2019-02-15T14:20:02.394Z,99595.70
2019-02-15T14:22:33.988Z,99602.10
2019-02-15T14:25:05.724Z,99620.98
2019-02-15T14:27:37.224Z,99620.98
2019-02-15T14:30:09.563Z,99622.08
2019-02-15T14:32:41.059Z,99629.69
2019-02-15T14:35:13.360Z,99632.02
2019-02-15T14:37:45.205Z,99632.09
2019-02-15T14:40:16.777Z,99632.09
2019-02-15T14:42:49.323Z,99632.41
2019-02-15T14:45:21.342Z,99641.48
2019-02-15T14:47:55.283Z,99641.48
2019-02-15T14:50:26.422Z,99642.39
2019-02-15T14:52:58.051Z,99652.48
2019-02-15T14:55:29.683Z,99652.17
2019-02-15T14:58:01.397Z,99657.51
2019-02-15T15:00:32.720Z,99665.82
2019-02-15T15:03:04.207Z,99662.19
2019-02-15T15:05:35.861Z,99665.64
2019-02-15T15:08:07.438Z,99682.28
2019-02-15T15:10:39.107Z,99682.28
2019-02-15T15:13:10.891Z,99685.45
2019-02-15T15:15:42.494Z,99685.45
2019-02-15T15:18:14.051Z,99689.27
2019-02-15T15:20:45.739Z,99697.34
2019-02-15T15:23:17.569Z,99708.02
2019-02-15T15:25:48.870Z,99708.02
2019-02-15T15:28:20.424Z,99705.55
2019-02-15T15:30:52.172Z,99711.72
2019-02-15T15:33:23.803Z,99707.06
2019-02-15T15:35:55.287Z,99718.81
2019-02-15T15:38:27.006Z,99714.77
2019-02-15T15:40:58.955Z,99723.69
2019-02-15T15:43:30.901Z,99737.65
2019-02-15T15:46:02.612Z,99734.45
2019-02-15T15:48:34.325Z,99734.45
2019-02-15T15:51:05.863Z,99736.31
2019-02-15T15:53:37.455Z,99741.70
2019-02-15T15:56:08.955Z,99741.70
2019-02-15T15:58:40.601Z,99744.45
2019-02-15T16:01:12.067Z,99750.98
2019-02-15T16:03:43.847Z,99755.46
2019-02-15T16:06:24.034Z,99755.46
2019-02-15T16:08:50.081Z,99752.79
2019-02-15T16:11:21.439Z,99763.77
2019-02-15T16:13:52.854Z,99763.77
2019-02-15T16:16:24.523Z,99760.52
2019-02-15T16:18:55.810Z,99763.70
2019-02-15T16:21:27.437Z,99760.92
2019-02-15T16:23:58.989Z,99759.58
2019-02-15T16:26:30.440Z,99755.13
2019-02-15T16:29:01.827Z,99754.84
2019-02-15T16:31:33.431Z,99760.36
2019-02-15T16:34:05.212Z,99760.36
2019-02-15T16:36:37.094Z,99763.38
2019-02-15T16:39:08.994Z,99768.84
2019-02-15T16:41:40.840Z,99769.34
2019-02-15T16:44:12.234Z,99769.34
2019-02-15T16:46:43.677Z,99771.45
2019-02-15T16:49:15.239Z,99771.45
2019-02-15T16:51:47.004Z,99768.05
2019-02-15T16:54:18.701Z,99778.11
2019-02-15T16:56:50.330Z,99783.38
2019-02-15T16:59:22.009Z,99789.13
2019-02-15T17:01:53.378Z,99789.13
2019-02-15T17:04:25.157Z,99791.41
2019-02-15T17:06:56.730Z,99791.77
2019-02-15T17:09:27.967Z,99788.13
2019-02-15T17:11:59.641Z,99792.35
2019-02-15T17:14:31.165Z,99792.35
2019-02-15T17:17:02.526Z,99789.16
2019-02-15T17:19:34.070Z,99785.88
2019-02-15T17:22:05.646Z,99785.88
2019-02-15T17:24:36.998Z,99792.69
2019-02-15T17:27:08.469Z,99792.69
2019-02-15T17:29:40.269Z,99794.72
2019-02-15T17:32:11.819Z,99798.43
2019-02-15T17:34:43.154Z,99800.53
2019-02-15T17:37:14.674Z,99804.30
2019-02-15T17:39:46.001Z,99799.80
2019-02-15T17:42:17.327Z,99801.98
2019-02-15T17:44:49.018Z,99797.81
2019-02-15T17:47:20.504Z,99804.58
2019-02-15T17:49:51.820Z,99804.58
2019-02-15T17:52:23.372Z,99802.36
2019-02-15T17:54:54.797Z,99803.26
2019-02-15T17:57:26.494Z,99804.38
2019-02-15T17:59:57.706Z,99804.38
2019-02-15T18:02:29.399Z,99799.75
2019-02-15T18:05:01.254Z,99799.75
2019-02-15T18:07:32.437Z,99803.80
2019-02-15T18:10:03.751Z,99803.39
2019-02-15T18:12:35.029Z,99805.68
2019-02-15T18:15:06.762Z,99802.36
2019-02-15T18:17:38.416Z,99800.02
2019-02-15T18:20:10.265Z,99802.56
2019-02-15T18:22:41.836Z,99811.19
2019-02-15T18:25:13.188Z,99808.09
2019-02-15T18:27:44.878Z,99808.09
2019-02-15T18:30:16.521Z,99807.41
2019-02-15T18:32:48.196Z,99808.80
2019-02-15T18:35:19.555Z,99812.02
2019-02-15T18:37:51.375Z,99808.30
2019-02-15T18:40:22.992Z,99813.14
2019-02-15T18:42:54.249Z,99809.69
2019-02-15T18:45:25.678Z,99814.65
2019-02-15T18:47:56.898Z,99814.65
2019-02-15T18:50:28.259Z,99807.41
2019-02-15T18:52:59.691Z,99810.16
2019-02-15T18:55:30.952Z,99814.97
2019-02-15T18:58:02.403Z,99814.97
2019-02-15T19:00:34.010Z,99806.73
2019-02-15T19:03:06.069Z,99799.81
2019-02-15T19:05:37.780Z,99801.97
2019-02-15T19:08:09.415Z,99801.97
2019-02-15T19:10:41.244Z,99799.67
2019-02-15T19:13:12.669Z,99790.53
2019-02-15T19:15:44.830Z,99790.53
2019-02-15T19:18:16.513Z,99789.88
2019-02-15T19:20:48.211Z,99797.71
2019-02-15T19:23:19.504Z,99784.66
2019-02-15T19:25:51.447Z,99784.66
2019-02-15T19:28:22.810Z,99786.08
2019-02-15T19:30:54.232Z,99786.08
2019-02-15T19:33:25.584Z,99781.51
2019-02-15T19:35:57.161Z,99783.18
2019-02-15T19:38:28.579Z,99790.90
2019-02-15T19:41:00.052Z,99786.92
2019-02-15T19:43:31.738Z,99784.41
2019-02-15T19:46:03.599Z,99783.18
2019-02-15T19:48:34.911Z,99774.30
2019-02-15T19:51:06.296Z,99774.30
2019-02-15T19:53:37.574Z,99774.44
2019-02-15T19:56:09.374Z,99773.54
2019-02-15T19:58:43.791Z,99772.78
2019-02-15T20:01:14.384Z,99770.09
2019-02-15T20:03:46.037Z,99772.14
2019-02-15T20:06:17.890Z,99765.26
2019-02-15T20:08:49.493Z,99765.26
2019-02-15T20:11:21.468Z,99769.43
2019-02-15T20:13:52.755Z,99764.02
2019-02-15T20:16:24.728Z,99764.02
2019-02-15T20:18:56.138Z,99751.83
2019-02-15T20:21:27.856Z,99758.40
2019-02-15T20:23:59.715Z,99758.40
2019-02-15T20:26:31.345Z,99752.33
2019-02-15T20:29:02.918Z,99752.47
2019-02-15T20:31:34.739Z,99745.66
2019-02-15T20:34:06.496Z,99747.66
2019-02-15T20:36:38.252Z,99747.66
2019-02-15T20:39:12.754Z,99751.58
2019-02-15T20:41:44.916Z,99751.58
2019-02-15T20:44:16.758Z,99748.50
2019-02-15T20:46:48.448Z,99735.06
2019-02-15T20:49:20.272Z,99735.06
2019-02-15T20:51:51.997Z,99733.26
2019-02-15T20:54:23.976Z,99738.20
2019-02-15T20:56:55.688Z,99738.20
2019-02-15T20:59:27.398Z,99737.65
2019-02-15T21:01:58.855Z,99736.38
2019-02-15T21:04:30.521Z,99739.35
2019-02-15T21:07:02.173Z,99739.35
2019-02-15T21:09:33.700Z,99732.25
2019-02-15T21:12:05.266Z,99732.25
2019-02-15T21:14:36.652Z,99732.13
2019-02-15T21:17:08.237Z,99732.13
2019-02-15T21:19:40.154Z,99732.13
2019-02-15T21:22:11.881Z,99734.14
2019-02-15T21:24:43.511Z,99733.44
2019-02-15T21:27:14.935Z,99733.44
2019-02-15T21:29:46.503Z,99730.47
2019-02-15T21:32:17.972Z,99722.12
2019-02-15T21:34:49.732Z,99714.88
2019-02-15T21:37:21.095Z,99711.63
2019-02-15T21:39:52.714Z,99711.63
2019-02-15T21:42:24.408Z,99717.19
2019-02-15T21:44:56.256Z,99713.63
2019-02-15T21:47:27.805Z,99714.30
2019-02-15T21:49:59.890Z,99712.33
2019-02-15T21:52:31.338Z,99712.33
2019-02-15T21:55:02.913Z,99716.89
2019-02-15T21:57:34.392Z,99716.89
2019-02-15T22:00:06.971Z,99710.06
2019-02-15T22:02:39.786Z,99714.11
2019-02-15T22:05:11.290Z,99714.11
2019-02-15T22:07:42.594Z,99718.19
2019-02-15T22:10:14.331Z,99720.18
2019-02-15T22:12:46.378Z,99722.46
2019-02-15T22:15:18.126Z,99722.46
2019-02-15T22:17:50.037Z,99724.08
2019-02-15T22:20:26.823Z,99724.38
2019-02-15T22:22:55.141Z,99724.25
2019-02-15T22:25:26.582Z,99724.25
2019-02-15T22:27:58.039Z,99728.83
2019-02-15T22:30:29.847Z,99726.95
2019-02-15T22:33:01.489Z,99725.78
2019-02-15T22:35:32.901Z,99725.78
2019-02-15T22:38:04.848Z,99730.86
2019-02-15T22:40:38.019Z,99734.72
2019-02-15T22:43:16.016Z,99742.16
2019-02-15T22:45:47.538Z,99741.58
2019-02-15T22:48:19.233Z,99741.58
2019-02-15T22:50:51.718Z,99745.17
2019-02-15T22:53:23.401Z,99752.35
2019-02-15T22:55:55.109Z,99740.45
2019-02-15T22:58:26.301Z,99751.55
2019-02-15T23:01:06.900Z,99751.55
2019-02-15T23:03:38.729Z,99745.17
2019-02-15T23:06:10.608Z,99745.58
2019-02-15T23:08:42.551Z,99745.17
2019-02-15T23:11:14.314Z,99745.17
2019-02-15T23:13:46.134Z,99749.97
2019-02-15T23:16:19.227Z,99753.75
2019-02-15T23:18:50.662Z,99753.75
2019-02-15T23:21:22.477Z,99758.53
2019-02-15T23:23:54.171Z,99757.42
2019-02-15T23:26:25.452Z,99762.77
2019-02-15T23:28:56.901Z,99765.87
2019-02-15T23:31:28.381Z,99765.87
2019-02-15T23:33:59.673Z,99768.75
2019-02-15T23:36:31.160Z,99768.34
2019-02-15T23:39:03.004Z,99774.17
2019-02-15T23:41:35.984Z,99774.17
2019-02-15T23:44:07.534Z,99771.13
2019-02-15T23:46:39.312Z,99769.60
2019-02-15T23:49:10.615Z,99769.60
2019-02-15T23:51:42.486Z,99774.58
2019-02-15T23:54:13.972Z,99774.58
2019-02-15T23:56:45.560Z,99769.86
2019-02-15T23:59:16.904Z,99769.86
